createdAt,value
2023-04-11T00:01:00.883Z,3.70
2023-04-11T00:03:29.486Z,2.60
2023-04-11T00:05:57.942Z,2.75
2023-04-11T00:08:26.380Z,2.05
2023-04-11T00:10:54.654Z,2.38
2023-04-11T00:13:24.470Z,1.98
2023-04-11T00:15:55.329Z,2.25
2023-04-11T00:18:25.712Z,1.95
2023-04-11T00:20:54.030Z,1.60
2023-04-11T00:23:22.305Z,1.60
2023-04-11T00:25:50.872Z,1.38
2023-04-11T00:28:19.204Z,1.50
2023-04-11T00:30:47.843Z,1.00
2023-04-11T00:33:16.626Z,1.15
2023-04-11T00:35:46.494Z,1.00
2023-04-11T00:38:15.058Z,1.00
2023-04-11T00:40:43.350Z,1.08
2023-04-11T00:43:11.850Z,0.93
2023-04-11T00:45:40.433Z,0.90
2023-04-11T00:48:09.095Z,0.80
2023-04-11T00:50:41.595Z,1.10
2023-04-11T00:53:12.660Z,0.93
2023-04-11T00:55:41.095Z,1.02
2023-04-11T00:58:09.454Z,0.88
2023-04-11T01:00:38.611Z,0.85
2023-04-11T01:03:08.338Z,1.05
2023-04-11T01:05:37.144Z,0.80
2023-04-11T01:08:06.248Z,0.80
2023-04-11T01:10:36.183Z,1.10
2023-04-11T01:13:04.582Z,0.88
2023-04-11T01:15:32.927Z,0.63
2023-04-11T01:18:02.119Z,0.70
2023-04-11T01:20:31.710Z,0.80
2023-04-11T01:23:00.585Z,0.85
2023-04-11T01:25:30.303Z,0.80
2023-04-11T01:27:58.660Z,0.60
2023-04-11T01:30:27.053Z,0.85
2023-04-11T01:32:55.484Z,0.65
2023-04-11T01:35:23.842Z,0.70
2023-04-11T01:37:52.197Z,0.63
2023-04-11T01:40:22.530Z,0.50
2023-04-11T01:42:52.370Z,0.60
2023-04-11T01:45:22.706Z,0.70
2023-04-11T01:47:52.787Z,0.65
2023-04-11T01:50:21.183Z,0.50
2023-04-11T01:52:49.712Z,0.43
2023-04-11T01:55:18.376Z,0.55
2023-04-11T01:57:46.758Z,0.50
2023-04-11T02:00:17.133Z,0.60
2023-04-11T02:02:47.147Z,0.45
2023-04-11T02:05:15.597Z,0.57
2023-04-11T02:07:45.034Z,0.55
2023-04-11T02:10:18.567Z,0.70
2023-04-11T02:12:46.950Z,0.80
2023-04-11T02:15:16.674Z,0.52
2023-04-11T02:17:45.967Z,0.50
2023-04-11T02:20:14.637Z,0.52
2023-04-11T02:22:43.310Z,0.60
2023-04-11T02:25:11.686Z,0.65
2023-04-11T02:27:40.011Z,0.75
2023-04-11T02:30:08.860Z,0.88
2023-04-11T02:32:39.699Z,0.80
2023-04-11T02:35:08.871Z,0.57
2023-04-11T02:37:37.352Z,0.70
2023-04-11T02:40:06.237Z,0.60
2023-04-11T02:42:34.476Z,0.77
2023-04-11T02:45:03.310Z,0.70
2023-04-11T02:47:31.825Z,0.50
2023-04-11T02:50:07.138Z,0.50
2023-04-11T02:52:42.169Z,0.57
2023-04-11T02:55:11.798Z,0.50
2023-04-11T02:57:40.218Z,0.70
2023-04-11T03:00:12.830Z,0.60
2023-04-11T03:02:49.940Z,0.60
2023-04-11T03:05:23.897Z,0.80
2023-04-11T03:07:54.753Z,0.50
2023-04-11T03:10:23.899Z,1.08
2023-04-11T03:12:52.268Z,0.70
2023-04-11T03:15:20.654Z,0.55
2023-04-11T03:17:49.597Z,0.65
2023-04-11T03:20:20.135Z,0.70
2023-04-11T03:22:53.518Z,0.73
2023-04-11T03:25:22.439Z,0.70
2023-04-11T03:27:52.237Z,0.60
2023-04-11T03:30:20.526Z,0.57
2023-04-11T03:32:49.760Z,0.70
2023-04-11T03:35:20.438Z,0.60
2023-04-11T03:37:50.827Z,0.57
2023-04-11T03:40:20.735Z,0.60
2023-04-11T03:43:03.607Z,0.60
2023-04-11T03:45:34.220Z,0.70
2023-04-11T03:48:05.458Z,0.70
2023-04-11T03:50:47.297Z,0.50
2023-04-11T03:53:18.716Z,0.70
2023-04-11T03:55:49.974Z,0.90
2023-04-11T03:58:21.390Z,0.68
2023-04-11T04:00:49.758Z,0.52
2023-04-11T04:03:18.374Z,0.50
2023-04-11T04:05:47.286Z,0.65
2023-04-11T04:08:16.230Z,0.55
2023-04-11T04:10:47.721Z,0.60
2023-04-11T04:13:17.867Z,0.45
2023-04-11T04:15:52.686Z,0.70
2023-04-11T04:18:25.937Z,0.63
2023-04-11T04:20:54.284Z,0.68
2023-04-11T04:23:26.672Z,0.60
2023-04-11T04:26:02.192Z,0.70
2023-04-11T04:28:34.213Z,0.50
2023-04-11T04:31:05.132Z,0.60
2023-04-11T04:33:42.651Z,0.60
2023-04-11T04:36:18.287Z,0.43
2023-04-11T04:38:48.744Z,0.38
2023-04-11T04:41:17.476Z,0.60
2023-04-11T04:43:58.108Z,0.60
2023-04-11T04:46:54.416Z,0.80
2023-04-11T04:49:25.975Z,0.70
2023-04-11T04:51:54.284Z,0.65
2023-04-11T04:54:23.700Z,0.60
2023-04-11T04:56:52.077Z,0.50
2023-04-11T04:59:21.732Z,0.80
2023-04-11T05:01:56.598Z,0.90
2023-04-11T05:04:31.675Z,0.70
2023-04-11T05:07:01.467Z,0.63
2023-04-11T05:09:31.426Z,0.80
2023-04-11T05:12:10.374Z,0.50
2023-04-11T05:14:41.971Z,0.75
2023-04-11T05:17:10.372Z,0.68
2023-04-11T05:19:38.693Z,0.52
2023-04-11T05:22:07.044Z,0.68
2023-04-11T05:24:40.689Z,0.45
2023-04-11T05:27:13.313Z,0.70
2023-04-11T05:29:44.619Z,0.50
2023-04-11T05:32:13.817Z,0.82
2023-04-11T05:34:52.328Z,0.90
2023-04-11T05:37:26.048Z,1.00
2023-04-11T05:39:56.240Z,0.65
2023-04-11T05:42:24.619Z,1.00
2023-04-11T05:44:54.515Z,0.75
2023-04-11T05:47:23.450Z,0.75
2023-04-11T05:49:51.744Z,1.23
2023-04-11T05:52:20.042Z,0.90
2023-04-11T05:54:48.306Z,0.90
2023-04-11T05:57:17.457Z,1.08
2023-04-11T05:59:49.564Z,0.88
2023-04-11T06:02:19.357Z,1.00
2023-04-11T06:04:47.749Z,0.80
2023-04-11T06:07:16.246Z,1.00
2023-04-11T06:09:44.515Z,1.50
2023-04-11T06:12:12.842Z,1.08
2023-04-11T06:14:41.162Z,0.60
2023-04-11T06:17:09.732Z,1.10
2023-04-11T06:19:39.770Z,1.00
2023-04-11T06:22:08.188Z,0.95
2023-04-11T06:24:36.982Z,1.13
2023-04-11T06:27:05.646Z,1.10
2023-04-11T06:29:33.946Z,1.00
2023-04-11T06:32:02.222Z,1.08
2023-04-11T06:34:30.724Z,0.77
2023-04-11T06:37:00.353Z,0.85
2023-04-11T06:39:28.660Z,0.90
2023-04-11T06:41:57.470Z,1.27
2023-04-11T06:44:27.241Z,0.95
2023-04-11T06:46:55.763Z,0.77
2023-04-11T06:49:24.345Z,1.30
2023-04-11T06:51:54.116Z,1.30
2023-04-11T06:54:24.094Z,1.27
2023-04-11T06:56:52.610Z,0.90
2023-04-11T06:59:21.521Z,1.15
2023-04-11T07:01:50.661Z,1.52
2023-04-11T07:04:19.942Z,1.30
2023-04-11T07:06:50.501Z,1.00
2023-04-11T07:09:20.993Z,1.30
2023-04-11T07:11:50.772Z,1.10
2023-04-11T07:14:19.213Z,1.02
2023-04-11T07:16:47.452Z,1.40
2023-04-11T07:19:15.810Z,1.08
2023-04-11T07:21:49.943Z,1.08
2023-04-11T07:24:21.050Z,0.85
2023-04-11T07:26:51.851Z,1.33
2023-04-11T07:29:20.367Z,1.20
2023-04-11T07:31:49.501Z,1.50
2023-04-11T07:34:17.845Z,1.20
2023-04-11T07:36:46.135Z,1.13
2023-04-11T07:39:15.132Z,1.10
2023-04-11T07:41:43.408Z,1.05
2023-04-11T07:44:13.037Z,1.33
2023-04-11T07:46:41.340Z,0.90
2023-04-11T07:49:09.682Z,1.08
2023-04-11T07:51:37.994Z,1.13
2023-04-11T07:54:07.307Z,0.90
2023-04-11T07:56:35.695Z,1.30
2023-04-11T07:59:04.420Z,1.08
2023-04-11T08:01:34.207Z,1.27
2023-04-11T08:04:02.929Z,1.30
2023-04-11T08:06:31.667Z,1.02
2023-04-11T08:09:00.814Z,1.02
2023-04-11T08:11:29.172Z,1.40
2023-04-11T08:13:57.564Z,1.55
2023-04-11T08:16:26.128Z,1.20
2023-04-11T08:18:57.093Z,1.00
2023-04-11T08:21:25.424Z,1.35
2023-04-11T08:23:53.760Z,1.00
2023-04-11T08:26:22.146Z,0.90
2023-04-11T08:28:50.625Z,0.90
2023-04-11T08:31:19.281Z,1.00
2023-04-11T08:33:47.662Z,1.20
2023-04-11T08:36:17.291Z,0.93
2023-04-11T08:38:45.676Z,0.98
2023-04-11T08:41:14.430Z,1.20
2023-04-11T08:43:44.147Z,1.20
2023-04-11T08:46:13.791Z,1.23
2023-04-11T08:48:42.179Z,0.90
2023-04-11T08:51:12.449Z,0.90
2023-04-11T08:53:42.870Z,1.00
2023-04-11T08:56:16.502Z,1.33
2023-04-11T08:58:44.807Z,1.10
2023-04-11T09:01:30.274Z,1.10
2023-04-11T09:03:58.747Z,0.68
2023-04-11T09:06:30.563Z,1.10
2023-04-11T09:09:00.950Z,1.13
2023-04-11T09:11:29.325Z,1.10
2023-04-11T09:14:07.663Z,0.93
2023-04-11T09:16:36.109Z,0.80
2023-04-11T09:19:04.782Z,1.45
2023-04-11T09:21:33.078Z,1.27
2023-04-11T09:24:16.281Z,0.93
2023-04-11T09:26:46.065Z,1.17
2023-04-11T09:29:22.415Z,1.02
2023-04-11T09:31:50.701Z,1.17
2023-04-11T09:34:25.877Z,0.90
2023-04-11T09:36:56.055Z,0.85
2023-04-11T09:39:28.296Z,0.88
2023-04-11T09:41:58.020Z,0.77
2023-04-11T09:44:36.854Z,0.80
2023-04-11T09:47:05.337Z,1.00
2023-04-11T09:49:35.336Z,1.00
2023-04-11T09:52:04.656Z,0.80
2023-04-11T09:54:33.676Z,0.93
2023-04-11T09:57:04.625Z,1.45
2023-04-11T09:59:33.289Z,1.00
2023-04-11T10:02:01.727Z,0.80
2023-04-11T10:04:30.238Z,0.70
2023-04-11T10:07:04.719Z,1.00
2023-04-11T10:09:33.568Z,1.10
2023-04-11T10:12:01.893Z,0.73
2023-04-11T10:14:48.071Z,0.73
2023-04-11T10:17:24.173Z,1.30
2023-04-11T10:19:56.456Z,0.88
2023-04-11T10:22:39.990Z,1.10
2023-04-11T10:25:17.645Z,0.80
2023-04-11T10:27:49.866Z,0.90
2023-04-11T10:30:20.056Z,0.80
2023-04-11T10:33:03.499Z,0.68
2023-04-11T10:35:32.042Z,0.85
2023-04-11T10:38:00.341Z,0.80
2023-04-11T10:40:28.626Z,0.70
2023-04-11T10:42:57.392Z,0.60
2023-04-11T10:45:27.645Z,0.60
2023-04-11T10:48:07.673Z,0.60
2023-04-11T10:50:45.696Z,0.75
2023-04-11T10:53:36.125Z,0.77
2023-04-11T10:56:04.865Z,0.55
2023-04-11T10:58:36.682Z,0.60
2023-04-11T11:01:31.464Z,0.68
2023-04-11T11:04:06.887Z,0.80
2023-04-11T11:06:56.794Z,0.85
2023-04-11T11:09:28.790Z,0.85
2023-04-11T11:12:07.387Z,0.85
2023-04-11T11:14:35.679Z,0.95
2023-04-11T11:17:05.783Z,0.80
2023-04-11T11:19:34.532Z,1.00
2023-04-11T11:22:04.037Z,0.70
2023-04-11T11:24:32.659Z,0.80
2023-04-11T11:27:00.984Z,0.75
2023-04-11T11:29:33.654Z,0.80
2023-04-11T11:32:03.905Z,0.80
2023-04-11T11:34:34.303Z,0.93
2023-04-11T11:37:05.072Z,0.57
2023-04-11T11:39:33.938Z,1.00
2023-04-11T11:42:03.270Z,0.95
2023-04-11T11:44:32.400Z,0.82
2023-04-11T11:47:04.144Z,0.60
2023-04-11T11:49:46.373Z,1.05
2023-04-11T11:52:14.957Z,0.73
2023-04-11T11:54:46.594Z,1.30
2023-04-11T11:57:22.536Z,0.60
2023-04-11T11:59:54.714Z,0.98
2023-04-11T12:02:27.637Z,0.80
2023-04-11T12:05:00.852Z,0.85
2023-04-11T12:07:33.571Z,0.90
2023-04-11T12:10:06.727Z,0.90
2023-04-11T12:12:36.064Z,0.90
2023-04-11T12:15:04.480Z,0.80
2023-04-11T12:17:37.832Z,0.80
2023-04-11T12:20:08.689Z,0.80
2023-04-11T12:22:36.973Z,0.70
2023-04-11T12:25:06.165Z,0.93
2023-04-11T12:27:35.076Z,0.80
2023-04-11T12:30:03.932Z,0.77
2023-04-11T12:32:33.710Z,1.00
2023-04-11T12:35:02.113Z,0.82
2023-04-11T12:37:31.760Z,1.40
2023-04-11T12:40:00.408Z,1.25
2023-04-11T12:42:28.815Z,1.00
2023-04-11T12:44:57.151Z,1.00
2023-04-11T12:47:25.445Z,0.80
2023-04-11T12:49:53.759Z,0.80
2023-04-11T12:52:22.328Z,0.73
2023-04-11T12:54:51.943Z,0.60
2023-04-11T12:57:20.228Z,0.80
2023-04-11T12:59:48.645Z,1.10
2023-04-11T13:02:19.382Z,0.60
2023-04-11T13:04:50.089Z,0.52
2023-04-11T13:07:19.662Z,0.90
2023-04-11T13:09:47.990Z,0.70
2023-04-11T13:12:17.646Z,0.38
2023-04-11T13:14:46.033Z,0.77
2023-04-11T13:17:15.277Z,0.50
2023-04-11T13:19:43.549Z,0.68
2023-04-11T13:22:11.890Z,0.93
2023-04-11T13:24:40.125Z,0.68
2023-04-11T13:27:08.392Z,0.70
2023-04-11T13:29:41.403Z,0.80
2023-04-11T13:32:09.712Z,0.70
2023-04-11T13:34:38.188Z,0.70
2023-04-11T13:37:06.505Z,0.77
2023-04-11T13:39:34.868Z,0.80
2023-04-11T13:42:03.189Z,0.63
2023-04-11T13:44:31.450Z,0.80
2023-04-11T13:47:02.626Z,0.70
2023-04-11T13:49:30.944Z,0.70
2023-04-11T13:51:59.235Z,0.80
2023-04-11T13:54:27.549Z,0.60
2023-04-11T13:56:56.423Z,0.70
2023-04-11T13:59:24.700Z,0.85
2023-04-11T14:01:54.802Z,0.65
2023-04-11T14:04:27.506Z,0.93
2023-04-11T14:06:56.610Z,0.75
2023-04-11T14:09:24.872Z,1.00
2023-04-11T14:11:53.423Z,0.90
2023-04-11T14:14:21.782Z,0.50
2023-04-11T14:16:50.296Z,0.50
2023-04-11T14:19:18.645Z,0.77
2023-04-11T14:21:48.276Z,0.57
2023-04-11T14:24:16.545Z,0.80
2023-04-11T14:26:44.794Z,0.70
2023-04-11T14:29:13.103Z,0.60
2023-04-11T14:31:41.447Z,0.50
2023-04-11T14:34:09.759Z,0.77
2023-04-11T14:36:38.123Z,0.90
2023-04-11T14:39:10.320Z,0.60
2023-04-11T14:41:44.324Z,0.57
2023-04-11T14:44:16.565Z,0.60
2023-04-11T14:46:44.926Z,0.70
2023-04-11T14:49:13.214Z,0.88
2023-04-11T14:51:41.579Z,0.60
2023-04-11T14:54:11.213Z,0.80
2023-04-11T14:56:39.600Z,0.50
2023-04-11T14:59:11.317Z,0.70
2023-04-11T15:01:41.440Z,0.75
2023-04-11T15:04:13.482Z,0.60
2023-04-11T15:06:44.899Z,0.73
2023-04-11T15:09:19.913Z,0.45
2023-04-11T15:11:48.577Z,0.60
2023-04-11T15:14:16.846Z,0.50
2023-04-11T15:16:45.273Z,0.68
2023-04-11T15:19:13.529Z,0.60
2023-04-11T15:21:41.830Z,0.50
2023-04-11T15:24:10.264Z,0.85
2023-04-11T15:26:39.866Z,0.98
2023-04-11T15:29:10.159Z,0.75
2023-04-11T15:31:38.802Z,0.60
2023-04-11T15:34:07.095Z,0.50
2023-04-11T15:36:35.485Z,0.40
2023-04-11T15:39:04.508Z,0.82
2023-04-11T15:41:32.822Z,0.75
2023-04-11T15:44:02.378Z,0.80
2023-04-11T15:46:30.692Z,0.73
2023-04-11T15:48:59.081Z,0.77
2023-04-11T15:51:28.112Z,0.70
2023-04-11T15:53:56.657Z,0.80
2023-04-11T15:56:25.136Z,0.80
2023-04-11T15:58:53.425Z,1.10
2023-04-11T16:01:25.740Z,0.90
2023-04-11T16:03:55.925Z,1.00
2023-04-11T16:06:27.285Z,3.13
2023-04-11T16:09:00.224Z,1.20
2023-04-11T16:11:29.301Z,1.20
2023-04-11T16:13:58.066Z,1.10
2023-04-11T16:16:27.959Z,0.88
2023-04-11T16:18:56.331Z,1.08
2023-04-11T16:21:24.728Z,1.27
2023-04-11T16:23:54.296Z,0.98
2023-04-11T16:26:22.653Z,1.40
2023-04-11T16:28:52.248Z,0.80
2023-04-11T16:31:24.440Z,1.10
2023-04-11T16:33:55.772Z,0.63
2023-04-11T16:36:24.520Z,3.10
2023-04-11T16:38:52.804Z,1.92
2023-04-11T16:41:21.288Z,0.82
2023-04-11T16:43:49.587Z,1.00
2023-04-11T16:46:17.925Z,0.82
2023-04-11T16:48:46.292Z,0.90
2023-04-11T16:51:18.206Z,1.30
2023-04-11T16:53:47.308Z,1.00
2023-04-11T16:56:15.719Z,0.77
2023-04-11T16:58:43.955Z,0.70
2023-04-11T17:01:13.530Z,0.60
2023-04-11T17:03:44.044Z,0.68
2023-04-11T17:06:16.011Z,0.70
2023-04-11T17:08:46.233Z,0.70
2023-04-11T17:11:14.548Z,0.80
2023-04-11T17:13:45.024Z,0.80
2023-04-11T17:16:13.541Z,0.80
2023-04-11T17:18:41.984Z,0.93
2023-04-11T17:21:10.312Z,0.63
2023-04-11T17:23:42.453Z,0.82
2023-04-11T17:26:26.904Z,0.85
2023-04-11T17:28:55.329Z,0.70
2023-04-11T17:31:24.036Z,0.70
2023-04-11T17:33:52.403Z,0.82
2023-04-11T17:36:20.691Z,0.65
2023-04-11T17:38:49.072Z,0.95
2023-04-11T17:41:17.368Z,1.00
2023-04-11T17:43:46.947Z,0.93
2023-04-11T17:46:15.301Z,1.30
2023-04-11T17:48:43.644Z,0.65
2023-04-11T17:51:11.965Z,0.82
2023-04-11T17:53:40.928Z,0.95
2023-04-11T17:56:09.672Z,0.95
2023-04-11T17:58:42.394Z,0.80
2023-04-11T18:01:12.634Z,1.15
2023-04-11T18:03:41.599Z,1.00
2023-04-11T18:06:10.828Z,0.90
2023-04-11T18:08:50.395Z,1.17
2023-04-11T18:11:20.777Z,1.00
2023-04-11T18:13:50.445Z,1.40
2023-04-11T18:16:20.782Z,1.17
2023-04-11T18:18:49.361Z,1.13
2023-04-11T18:21:18.086Z,1.10
2023-04-11T18:23:46.389Z,1.42
2023-04-11T18:26:14.687Z,1.13
2023-04-11T18:28:43.009Z,1.02
2023-04-11T18:31:11.875Z,1.00
2023-04-11T18:33:44.797Z,0.98
2023-04-11T18:36:14.736Z,1.20
2023-04-11T18:38:43.791Z,1.30
2023-04-11T18:41:12.051Z,1.08
2023-04-11T18:43:40.852Z,1.15
2023-04-11T18:46:09.458Z,1.30
2023-04-11T18:48:37.804Z,1.40
2023-04-11T18:51:07.889Z,1.40
2023-04-11T18:53:36.474Z,1.30
2023-04-11T18:56:19.672Z,1.10
2023-04-11T18:58:51.439Z,1.15
2023-04-11T19:01:22.814Z,0.95
2023-04-11T19:03:55.006Z,1.27
2023-04-11T19:06:25.576Z,1.10
2023-04-11T19:08:53.944Z,0.80
2023-04-11T19:11:22.409Z,1.15
2023-04-11T19:13:51.486Z,1.50
2023-04-11T19:16:20.938Z,1.13
2023-04-11T19:18:49.225Z,1.27
2023-04-11T19:21:17.586Z,1.00
2023-04-11T19:23:47.187Z,0.93
2023-04-11T19:26:16.076Z,1.35
2023-04-11T19:28:44.354Z,1.00
2023-04-11T19:31:12.709Z,1.10
2023-04-11T19:33:41.011Z,1.13
2023-04-11T19:36:09.517Z,1.10
2023-04-11T19:38:39.478Z,1.25
2023-04-11T19:41:13.179Z,1.30
2023-04-11T19:43:42.612Z,1.10
2023-04-11T19:46:12.343Z,1.13
2023-04-11T19:48:41.209Z,1.40
2023-04-11T19:51:09.742Z,1.50
2023-04-11T19:53:38.613Z,1.08
2023-04-11T19:56:07.956Z,1.58
2023-04-11T19:58:37.563Z,2.65
2023-04-11T20:01:08.241Z,1.90
2023-04-11T20:03:36.882Z,1.40
2023-04-11T20:06:06.072Z,2.30
2023-04-11T20:08:36.480Z,1.52
2023-04-11T20:11:05.469Z,1.13
2023-04-11T20:13:35.815Z,1.60
2023-04-11T20:16:08.643Z,1.88
2023-04-11T20:18:37.181Z,1.42
2023-04-11T20:21:07.455Z,2.30
2023-04-11T20:23:36.961Z,1.40
2023-04-11T20:26:05.356Z,2.38
2023-04-11T20:28:33.665Z,1.40
2023-04-11T20:31:04.262Z,2.53
2023-04-11T20:33:33.924Z,1.40
2023-04-11T20:36:03.113Z,1.40
2023-04-11T20:38:31.932Z,1.67
2023-04-11T20:41:03.596Z,1.30
2023-04-11T20:43:31.933Z,1.25
2023-04-11T20:46:00.317Z,1.00
2023-04-11T20:48:29.686Z,1.10
2023-04-11T20:51:01.590Z,1.23
2023-04-11T20:53:29.870Z,1.23
2023-04-11T20:55:58.143Z,1.15
2023-04-11T20:58:26.416Z,1.20
2023-04-11T21:00:54.870Z,1.27
2023-04-11T21:03:23.968Z,1.20
2023-04-11T21:05:52.362Z,1.48
2023-04-11T21:08:23.481Z,2.00
2023-04-11T21:10:51.730Z,1.10
2023-04-11T21:13:19.961Z,1.10
2023-04-11T21:15:48.343Z,1.42
2023-04-11T21:18:16.649Z,1.40
2023-04-11T21:20:45.068Z,1.58
2023-04-11T21:23:13.347Z,1.52
2023-04-11T21:25:42.956Z,1.42
2023-04-11T21:28:11.309Z,1.15
2023-04-11T21:30:42.120Z,0.98
2023-04-11T21:33:10.868Z,1.13
2023-04-11T21:35:39.143Z,1.58
2023-04-11T21:38:08.394Z,1.30
2023-04-11T21:40:36.654Z,1.25
2023-04-11T21:43:07.117Z,1.40
2023-04-11T21:45:35.421Z,1.15
2023-04-11T21:48:03.817Z,0.90
2023-04-11T21:50:32.095Z,1.55
2023-04-11T21:53:00.442Z,1.15
2023-04-11T21:55:28.795Z,1.10
2023-04-11T21:57:57.131Z,1.05
2023-04-11T22:00:27.097Z,1.35
2023-04-11T22:02:55.701Z,1.60
2023-04-11T22:05:26.008Z,1.17
2023-04-11T22:08:11.163Z,1.20
2023-04-11T22:10:47.716Z,1.17
2023-04-11T22:13:16.984Z,2.22
2023-04-11T22:15:48.626Z,1.30
2023-04-11T22:18:16.978Z,1.55
2023-04-11T22:20:45.769Z,1.33
2023-04-11T22:23:17.595Z,1.20
2023-04-11T22:25:45.923Z,1.50
2023-04-11T22:28:15.500Z,1.40
2023-04-11T22:30:43.882Z,0.90
2023-04-11T22:33:13.661Z,1.20
2023-04-11T22:35:43.957Z,1.30
2023-04-11T22:38:12.519Z,1.50
2023-04-11T22:40:41.162Z,1.48
2023-04-11T22:43:09.738Z,1.25
2023-04-11T22:45:38.092Z,1.95
2023-04-11T22:48:06.916Z,1.25
2023-04-11T22:50:37.788Z,1.10
2023-04-11T22:53:09.191Z,1.15
2023-04-11T22:55:39.884Z,1.17
2023-04-11T22:58:08.624Z,1.10
2023-04-11T23:00:38.208Z,1.50
2023-04-11T23:03:07.261Z,1.60
2023-04-11T23:05:39.457Z,1.55
2023-04-11T23:08:07.776Z,0.98
2023-04-11T23:10:36.098Z,1.00
2023-04-11T23:13:04.366Z,1.20
2023-04-11T23:15:32.905Z,1.45
2023-04-11T23:18:01.467Z,0.95
2023-04-11T23:20:29.789Z,1.10
2023-04-11T23:23:00.498Z,1.00
2023-04-11T23:25:29.042Z,1.20
2023-04-11T23:27:57.324Z,1.25
2023-04-11T23:30:25.972Z,1.23
2023-04-11T23:32:54.329Z,1.15
2023-04-11T23:35:23.592Z,1.40
2023-04-11T23:37:51.855Z,1.20
2023-04-11T23:40:21.529Z,1.20
2023-04-11T23:42:49.869Z,1.17
2023-04-11T23:45:22.237Z,1.00
2023-04-11T23:47:50.889Z,1.73
2023-04-11T23:50:19.173Z,1.30
2023-04-11T23:52:47.462Z,0.95
2023-04-11T23:55:16.082Z,1.20
2023-04-11T23:57:45.684Z,1.10
